createdAt,value
2023-04-18T00:01:24.884Z,16.37
2023-04-18T00:03:52.225Z,15.93
2023-04-18T00:06:21.152Z,15.97
2023-04-18T00:08:48.303Z,15.73
2023-04-18T00:11:15.077Z,16.20
2023-04-18T00:13:42.203Z,16.20
2023-04-18T00:16:09.065Z,16.73
2023-04-18T00:18:36.920Z,17.87
2023-04-18T00:21:04.503Z,15.77
2023-04-18T00:23:33.526Z,16.07
2023-04-18T00:26:00.471Z,17.33
2023-04-18T00:28:28.063Z,16.60
2023-04-18T00:30:55.228Z,16.63
2023-04-18T00:33:22.217Z,17.47
2023-04-18T00:35:52.536Z,17.23
2023-04-18T00:38:19.567Z,16.63
2023-04-18T00:40:48.108Z,17.10
2023-04-18T00:43:15.345Z,16.73
2023-04-18T00:45:42.281Z,15.93
2023-04-18T00:48:10.440Z,17.17
2023-04-18T00:50:37.869Z,16.03
2023-04-18T00:53:05.216Z,17.57
2023-04-18T00:55:32.152Z,16.87
2023-04-18T00:57:59.189Z,16.73
2023-04-18T01:00:26.215Z,16.10
2023-04-18T01:02:55.841Z,16.50
2023-04-18T01:05:23.412Z,16.33
2023-04-18T01:07:50.553Z,15.97
2023-04-18T01:10:17.936Z,16.27
2023-04-18T01:12:45.012Z,16.67
2023-04-18T01:15:11.862Z,15.70
2023-04-18T01:17:39.697Z,17.57
2023-04-18T01:20:07.170Z,16.30
2023-04-18T01:22:34.284Z,16.60
2023-04-18T01:25:06.911Z,15.97
2023-04-18T01:27:34.002Z,16.73
2023-04-18T01:30:00.727Z,16.17
2023-04-18T01:32:30.263Z,15.97
2023-04-18T01:34:57.016Z,16.07
2023-04-18T01:37:24.172Z,16.27
2023-04-18T01:39:50.921Z,15.83
2023-04-18T01:42:19.207Z,15.53
2023-04-18T01:44:45.957Z,17.23
2023-04-18T01:47:13.143Z,16.37
2023-04-18T01:49:42.780Z,16.20
2023-04-18T01:52:09.898Z,16.00
2023-04-18T01:54:36.641Z,16.83
2023-04-18T01:57:03.796Z,16.87
2023-04-18T01:59:30.520Z,16.70
2023-04-18T02:01:58.912Z,15.60
2023-04-18T02:04:26.537Z,16.30
2023-04-18T02:06:53.582Z,16.37
2023-04-18T02:09:20.981Z,15.03
2023-04-18T02:11:47.963Z,16.07
2023-04-18T02:14:15.217Z,15.00
2023-04-18T02:16:42.424Z,16.03
2023-04-18T02:19:09.196Z,15.63
2023-04-18T02:21:36.226Z,15.97
2023-04-18T02:24:02.900Z,15.17
2023-04-18T02:26:29.640Z,16.03
2023-04-18T02:28:58.714Z,15.17
2023-04-18T02:31:25.698Z,15.33
2023-04-18T02:33:52.730Z,15.13
2023-04-18T02:36:21.637Z,16.60
2023-04-18T02:38:48.583Z,16.57
2023-04-18T02:41:19.352Z,16.33
2023-04-18T02:43:47.323Z,14.83
2023-04-18T02:46:15.865Z,15.70
2023-04-18T02:48:45.661Z,15.07
2023-04-18T02:51:13.606Z,15.73
2023-04-18T02:53:40.903Z,16.10
2023-04-18T02:56:07.913Z,16.03
2023-04-18T02:59:04.011Z,16.27
2023-04-18T03:01:58.647Z,15.20
2023-04-18T03:04:25.918Z,16.07
2023-04-18T03:06:59.225Z,14.87
2023-04-18T03:09:27.664Z,16.17
2023-04-18T03:11:59.115Z,15.53
2023-04-18T03:14:29.368Z,14.30
2023-04-18T03:16:56.500Z,15.63
2023-04-18T03:19:28.440Z,15.20
2023-04-18T03:21:57.809Z,14.97
2023-04-18T03:24:24.792Z,14.10
2023-04-18T03:26:53.851Z,15.27
2023-04-18T03:29:24.494Z,15.57
2023-04-18T03:31:51.625Z,14.73
2023-04-18T03:34:18.677Z,15.60
2023-04-18T03:36:47.837Z,14.83
2023-04-18T03:39:15.385Z,14.00
2023-04-18T03:41:42.692Z,14.77
2023-04-18T03:44:10.079Z,15.20
2023-04-18T03:46:39.577Z,15.13
2023-04-18T03:49:07.125Z,14.93
2023-04-18T03:51:43.264Z,14.53
2023-04-18T03:54:10.624Z,13.27
2023-04-18T03:56:37.582Z,14.20
2023-04-18T03:59:04.630Z,15.20
2023-04-18T04:01:31.754Z,14.90
2023-04-18T04:03:59.172Z,16.37
2023-04-18T04:06:26.441Z,15.53
2023-04-18T04:08:54.441Z,14.83
2023-04-18T04:11:24.784Z,14.97
2023-04-18T04:13:53.268Z,16.37
2023-04-18T04:16:24.206Z,15.47
2023-04-18T04:18:53.204Z,14.97
2023-04-18T04:21:24.460Z,15.47
2023-04-18T04:23:53.516Z,16.03
2023-04-18T04:26:30.696Z,14.40
2023-04-18T04:29:03.714Z,15.53
2023-04-18T04:31:32.581Z,15.17
2023-04-18T04:33:59.618Z,15.90
2023-04-18T04:36:27.262Z,15.70
2023-04-18T04:38:56.384Z,15.07
2023-04-18T04:41:32.907Z,15.80
2023-04-18T04:44:01.849Z,16.10
2023-04-18T04:46:31.821Z,15.50
2023-04-18T04:49:01.279Z,14.10
2023-04-18T04:51:28.149Z,14.73
2023-04-18T04:53:55.591Z,14.97
2023-04-18T04:56:23.124Z,15.77
2023-04-18T04:58:50.539Z,15.53
2023-04-18T05:01:21.975Z,15.80
2023-04-18T05:03:51.982Z,15.57
2023-04-18T05:06:20.784Z,16.40
2023-04-18T05:08:48.666Z,15.03
2023-04-18T05:11:15.985Z,15.90
2023-04-18T05:13:43.342Z,15.60
2023-04-18T05:16:10.204Z,15.73
2023-04-18T05:18:41.412Z,14.43
2023-04-18T05:21:08.329Z,15.07
2023-04-18T05:23:36.972Z,15.70
2023-04-18T05:26:05.162Z,15.53
2023-04-18T05:28:32.401Z,15.90
2023-04-18T05:31:01.758Z,16.03
2023-04-18T05:33:29.828Z,15.73
2023-04-18T05:35:57.564Z,15.47
2023-04-18T05:38:24.994Z,15.23
2023-04-18T05:40:51.745Z,14.80
2023-04-18T05:43:19.449Z,15.57
2023-04-18T05:45:46.577Z,15.40
2023-04-18T05:48:14.017Z,15.50
2023-04-18T05:50:40.764Z,16.17
2023-04-18T05:53:07.854Z,15.47
2023-04-18T05:55:34.560Z,15.20
2023-04-18T05:58:01.566Z,16.07
2023-04-18T06:00:28.373Z,16.27
2023-04-18T06:02:55.467Z,15.80
2023-04-18T06:05:22.808Z,16.27
2023-04-18T06:07:50.085Z,16.83
2023-04-18T06:10:17.144Z,15.90
2023-04-18T06:12:44.228Z,16.83
2023-04-18T06:15:11.519Z,16.50
2023-04-18T06:17:38.584Z,16.03
2023-04-18T06:20:06.228Z,23.07
2023-04-18T06:22:36.695Z,16.13
2023-04-18T06:25:03.995Z,15.80
2023-04-18T06:27:32.037Z,16.20
2023-04-18T06:29:59.128Z,16.33
2023-04-18T06:32:26.462Z,15.80
2023-04-18T06:34:53.338Z,16.20
2023-04-18T06:37:20.685Z,14.63
2023-04-18T06:39:47.456Z,16.60
2023-04-18T06:42:14.466Z,16.63
2023-04-18T06:44:44.831Z,17.20
2023-04-18T06:47:12.248Z,16.30
2023-04-18T06:49:38.941Z,17.00
2023-04-18T06:52:06.193Z,15.50
2023-04-18T06:54:32.962Z,15.47
2023-04-18T06:57:02.107Z,16.17
2023-04-18T06:59:28.875Z,16.30
2023-04-18T07:01:56.023Z,16.87
2023-04-18T07:04:22.972Z,17.40
2023-04-18T07:06:51.697Z,16.83
2023-04-18T07:09:18.388Z,16.90
2023-04-18T07:11:45.547Z,16.00
2023-04-18T07:14:12.673Z,46.07
2023-04-18T07:16:39.938Z,37.23
2023-04-18T07:19:06.827Z,16.13
2023-04-18T07:21:33.871Z,17.27
2023-04-18T07:24:00.870Z,16.43
2023-04-18T07:26:28.130Z,16.17
2023-04-18T07:28:54.845Z,16.70
2023-04-18T07:31:21.998Z,17.40
2023-04-18T07:33:48.814Z,17.00
2023-04-18T07:36:15.851Z,16.83
2023-04-18T07:38:42.738Z,16.13
2023-04-18T07:41:09.961Z,16.90
2023-04-18T07:43:38.565Z,14.90
2023-04-18T07:46:06.374Z,15.00
2023-04-18T07:48:33.453Z,15.15
2023-04-18T07:51:00.457Z,15.47
2023-04-18T07:53:27.160Z,15.15
2023-04-18T07:55:54.763Z,15.23
2023-04-18T07:58:21.743Z,14.80
2023-04-18T08:00:48.771Z,13.97
2023-04-18T08:03:16.208Z,14.20
2023-04-18T08:05:43.589Z,14.13
2023-04-18T08:08:12.184Z,14.37
2023-04-18T08:10:39.341Z,14.87
2023-04-18T08:13:06.642Z,15.13
2023-04-18T08:15:33.860Z,14.47
2023-04-18T08:18:01.103Z,14.63
2023-04-18T08:20:28.357Z,14.07
2023-04-18T08:25:25.594Z,14.30
2023-04-18T08:27:52.402Z,14.00
2023-04-18T08:30:19.534Z,16.97
2023-04-18T08:32:46.382Z,33.80
2023-04-18T08:35:13.523Z,15.15
2023-04-18T08:37:40.233Z,16.57
2023-04-18T08:40:07.770Z,15.15
2023-04-18T08:42:35.880Z,13.57
2023-04-18T08:45:04.216Z,13.85
2023-04-18T08:47:31.215Z,12.95
2023-04-18T08:49:58.542Z,12.75
2023-04-18T08:52:27.258Z,13.00
2023-04-18T08:54:54.301Z,12.32
2023-04-18T08:57:26.870Z,13.73
2023-04-18T08:59:55.454Z,12.02
2023-04-18T09:02:35.019Z,12.23
2023-04-18T09:05:19.790Z,12.10
2023-04-18T09:07:48.298Z,12.07
2023-04-18T09:10:34.844Z,11.27
2023-04-18T09:13:05.533Z,11.48
2023-04-18T09:15:32.727Z,11.10
2023-04-18T09:18:02.661Z,12.23
2023-04-18T09:20:37.522Z,11.48
2023-04-18T09:23:06.364Z,11.55
2023-04-18T09:25:34.881Z,11.77
2023-04-18T09:28:03.324Z,11.25
2023-04-18T09:30:30.506Z,12.00
2023-04-18T09:33:00.081Z,12.23
2023-04-18T09:35:27.637Z,10.45
2023-04-18T09:37:54.616Z,11.35
2023-04-18T09:40:22.148Z,11.20
2023-04-18T09:42:52.863Z,10.48
2023-04-18T09:45:20.781Z,11.30
2023-04-18T09:47:47.654Z,11.32
2023-04-18T09:50:16.823Z,11.38
2023-04-18T09:52:44.834Z,10.77
2023-04-18T09:55:16.144Z,11.07
2023-04-18T09:57:46.465Z,10.82
2023-04-18T10:00:26.611Z,10.73
2023-04-18T10:02:58.530Z,12.32
2023-04-18T10:05:36.487Z,10.93
2023-04-18T10:08:03.723Z,12.10
2023-04-18T10:10:30.828Z,11.48
2023-04-18T10:12:58.760Z,11.25
2023-04-18T10:15:28.764Z,11.40
2023-04-18T10:18:04.232Z,10.10
2023-04-18T10:20:35.197Z,11.23
2023-04-18T10:23:31.591Z,10.73
2023-04-18T10:25:59.298Z,10.15
2023-04-18T10:28:27.655Z,11.38
2023-04-18T10:31:05.725Z,10.75
2023-04-18T10:33:42.529Z,11.60
2023-04-18T10:36:09.819Z,10.00
2023-04-18T10:38:45.144Z,10.60
2023-04-18T10:41:32.315Z,10.50
2023-04-18T10:44:14.654Z,11.00
2023-04-18T10:46:51.179Z,10.52
2023-04-18T10:49:28.378Z,10.02
2023-04-18T10:52:01.805Z,10.63
2023-04-18T10:54:41.769Z,10.65
2023-04-18T10:57:10.038Z,10.57
2023-04-18T10:59:44.543Z,10.65
2023-04-18T11:02:11.487Z,10.55
2023-04-18T11:04:39.349Z,9.63
2023-04-18T11:07:06.419Z,9.93
2023-04-18T11:09:33.156Z,10.55
2023-04-18T11:12:11.416Z,9.98
2023-04-18T11:14:46.644Z,10.80
2023-04-18T11:17:23.580Z,10.50
2023-04-18T11:19:51.762Z,11.05
2023-04-18T11:22:19.128Z,11.00
2023-04-18T11:24:45.962Z,10.13
2023-04-18T11:27:13.865Z,10.40
2023-04-18T11:29:40.619Z,10.40
2023-04-18T11:32:08.887Z,10.43
2023-04-18T11:34:36.004Z,11.02
2023-04-18T11:37:07.548Z,10.07
2023-04-18T11:39:36.409Z,10.18
2023-04-18T11:42:03.624Z,9.98
2023-04-18T11:44:30.457Z,9.70
2023-04-18T11:46:57.491Z,8.73
2023-04-18T11:49:32.447Z,8.55
2023-04-18T11:52:01.187Z,8.63
2023-04-18T11:54:42.094Z,8.88
2023-04-18T11:57:28.261Z,9.75
2023-04-18T12:00:00.042Z,9.52
2023-04-18T12:02:38.939Z,10.13
2023-04-18T12:05:06.930Z,9.38
2023-04-18T12:07:37.351Z,9.25
2023-04-18T12:10:06.422Z,8.85
2023-04-18T12:12:34.104Z,9.75
2023-04-18T12:15:07.315Z,9.95
2023-04-18T12:17:37.230Z,10.10
2023-04-18T12:20:05.817Z,10.13
2023-04-18T12:22:42.066Z,9.00
2023-04-18T12:25:24.370Z,8.48
2023-04-18T12:28:14.789Z,9.48
2023-04-18T12:30:42.648Z,9.00
2023-04-18T12:33:11.291Z,9.75
2023-04-18T12:35:38.040Z,9.63
2023-04-18T12:38:05.902Z,10.90
2023-04-18T12:40:32.587Z,9.55
2023-04-18T12:43:00.570Z,10.45
2023-04-18T12:45:29.536Z,9.80
2023-04-18T12:47:56.928Z,10.38
2023-04-18T12:50:25.795Z,10.23
2023-04-18T12:52:54.673Z,10.15
2023-04-18T12:55:22.768Z,9.38
2023-04-18T12:57:51.655Z,9.77
2023-04-18T13:00:18.388Z,11.05
2023-04-18T13:02:52.500Z,10.68
2023-04-18T13:05:21.719Z,10.65
2023-04-18T13:07:49.794Z,10.55
2023-04-18T13:10:19.318Z,9.73
2023-04-18T13:12:47.235Z,10.65
2023-04-18T13:15:14.073Z,10.68
2023-04-18T13:17:41.311Z,8.52
2023-04-18T13:20:12.361Z,9.63
2023-04-18T13:22:40.607Z,10.40
2023-04-18T13:25:10.375Z,8.85
2023-04-18T13:27:41.907Z,9.80
2023-04-18T13:30:10.671Z,10.10
2023-04-18T13:32:39.241Z,9.57
2023-04-18T13:35:08.330Z,10.57
2023-04-18T13:37:35.734Z,9.73
2023-04-18T13:40:06.973Z,8.80
2023-04-18T13:45:20.721Z,9.77
2023-04-18T13:47:47.790Z,9.05
2023-04-18T13:50:14.597Z,8.45
2023-04-18T13:52:41.604Z,9.35
2023-04-18T13:55:10.493Z,9.60
2023-04-18T13:57:37.536Z,10.05
2023-04-18T14:00:06.579Z,8.82
2023-04-18T14:02:39.108Z,8.10
2023-04-18T14:05:07.246Z,8.45
2023-04-18T14:07:34.442Z,7.47
2023-04-18T14:10:01.168Z,9.20
2023-04-18T14:12:50.693Z,9.32
2023-04-18T14:18:55.272Z,10.07
2023-04-18T14:21:22.649Z,10.38
2023-04-18T14:23:52.073Z,11.10
2023-04-18T14:26:19.395Z,10.80
2023-04-18T14:28:46.639Z,11.73
2023-04-18T14:31:14.384Z,11.23
2023-04-18T14:33:42.155Z,10.77
2023-04-18T14:36:09.768Z,10.48
2023-04-18T14:38:36.788Z,11.57
2023-04-18T14:41:04.958Z,10.55
2023-04-18T14:43:32.317Z,11.30
2023-04-18T14:45:59.784Z,10.32
2023-04-18T14:48:27.733Z,10.07
2023-04-18T14:50:58.700Z,10.18
2023-04-18T14:53:26.381Z,10.50
2023-04-18T14:55:53.192Z,9.82
2023-04-18T14:58:20.647Z,9.30
2023-04-18T15:00:47.495Z,10.13
2023-04-18T15:03:15.770Z,9.60
2023-04-18T15:05:49.157Z,9.40
2023-04-18T15:08:16.273Z,9.20
2023-04-18T15:10:43.261Z,9.13
2023-04-18T15:13:11.553Z,10.48
2023-04-18T15:15:39.742Z,9.77
2023-04-18T15:18:08.325Z,9.32
2023-04-18T15:20:37.076Z,10.38
2023-04-18T15:23:04.404Z,9.52
2023-04-18T15:25:31.206Z,9.43
2023-04-18T15:27:58.613Z,9.60
2023-04-18T15:30:25.682Z,9.40
2023-04-18T15:32:54.015Z,9.98
2023-04-18T15:35:21.110Z,8.65
2023-04-18T15:37:49.164Z,9.73
2023-04-18T15:40:16.524Z,9.52
2023-04-18T15:42:44.010Z,8.73
2023-04-18T15:45:11.608Z,9.32
2023-04-18T15:47:38.893Z,8.07
2023-04-18T15:50:06.955Z,9.48
2023-04-18T15:52:34.293Z,8.70
2023-04-18T15:55:01.349Z,8.85
2023-04-18T15:57:29.954Z,9.77
2023-04-18T15:59:57.156Z,8.85
2023-04-18T16:02:24.196Z,9.17
2023-04-18T16:04:51.219Z,9.68
2023-04-18T16:07:18.330Z,10.43
2023-04-18T16:09:45.056Z,10.00
2023-04-18T16:12:12.059Z,10.43
2023-04-18T16:14:38.755Z,10.20
2023-04-18T16:17:05.770Z,10.10
2023-04-18T16:19:33.925Z,11.90
2023-04-18T16:22:02.872Z,11.27
2023-04-18T16:24:30.839Z,11.13
2023-04-18T16:26:58.506Z,10.73
2023-04-18T16:29:25.424Z,12.20
2023-04-18T16:31:52.642Z,12.20
2023-04-18T16:34:19.499Z,12.30
2023-04-18T16:36:46.518Z,11.75
2023-04-18T16:39:13.602Z,10.85
2023-04-18T16:41:40.807Z,12.90
2023-04-18T16:44:07.618Z,12.27
2023-04-18T16:46:34.776Z,11.00
2023-04-18T16:49:01.618Z,11.00
2023-04-18T16:51:28.884Z,10.77
2023-04-18T16:53:55.813Z,10.63
2023-04-18T16:56:22.801Z,11.07
2023-04-18T16:58:49.548Z,11.10
2023-04-18T17:01:16.558Z,10.67
2023-04-18T17:03:43.387Z,12.50
2023-04-18T17:06:10.495Z,11.30
2023-04-18T17:08:37.381Z,10.73
2023-04-18T17:11:04.691Z,12.63
2023-04-18T17:13:31.629Z,12.63
2023-04-18T17:15:58.811Z,12.30
2023-04-18T17:18:25.660Z,11.90
2023-04-18T17:20:52.727Z,11.33
2023-04-18T17:23:19.601Z,11.97
2023-04-18T17:25:46.625Z,11.17
2023-04-18T17:28:15.911Z,12.00
2023-04-18T17:30:42.974Z,11.00
2023-04-18T17:33:10.455Z,12.13
2023-04-18T17:35:40.901Z,11.93
2023-04-18T17:38:08.272Z,10.80
2023-04-18T17:40:35.321Z,11.43
2023-04-18T17:43:02.023Z,10.40
2023-04-18T17:45:29.109Z,9.87
2023-04-18T17:47:57.574Z,10.53
2023-04-18T17:50:25.019Z,11.90
2023-04-18T17:52:51.755Z,10.17
2023-04-18T17:55:18.940Z,10.83
2023-04-18T17:57:45.733Z,10.80
2023-04-18T18:00:14.583Z,11.87
2023-04-18T18:02:42.765Z,11.13
2023-04-18T18:05:13.663Z,10.57
2023-04-18T18:07:43.093Z,10.47
2023-04-18T18:10:11.265Z,10.00
2023-04-18T18:12:38.222Z,9.40
2023-04-18T18:15:06.843Z,10.10
2023-04-18T18:17:33.750Z,10.23
2023-04-18T18:20:00.781Z,9.53
2023-04-18T18:22:28.357Z,9.30
2023-04-18T18:24:56.036Z,8.97
2023-04-18T18:27:22.765Z,9.90
2023-04-18T18:29:50.400Z,10.20
2023-04-18T18:32:17.180Z,10.02
2023-04-18T18:34:44.156Z,10.40
2023-04-18T18:37:10.874Z,10.60
2023-04-18T18:39:37.954Z,11.20
2023-04-18T18:42:04.811Z,9.60
2023-04-18T18:44:32.768Z,10.57
2023-04-18T18:46:59.943Z,11.20
2023-04-18T18:49:27.305Z,10.98
2023-04-18T18:51:54.027Z,10.27
2023-04-18T18:54:21.143Z,10.23
2023-04-18T18:56:48.165Z,9.93
2023-04-18T18:59:16.090Z,9.43
2023-04-18T19:01:43.175Z,9.93
2023-04-18T19:04:10.907Z,9.73
2023-04-18T19:06:37.761Z,9.00
2023-04-18T19:09:05.309Z,10.00
2023-04-18T19:11:32.091Z,9.33
2023-04-18T19:13:59.094Z,9.07
2023-04-18T19:16:25.974Z,9.63
2023-04-18T19:18:52.999Z,9.20
2023-04-18T19:21:20.225Z,9.70
2023-04-18T19:23:47.325Z,8.97
2023-04-18T19:26:14.298Z,9.73
2023-04-18T19:28:41.493Z,9.67
2023-04-18T19:31:09.606Z,9.70
2023-04-18T19:33:37.881Z,11.00
2023-04-18T19:36:05.015Z,10.87
2023-04-18T19:38:32.523Z,10.93
2023-04-18T19:40:59.232Z,9.23
2023-04-18T19:43:26.243Z,10.63
2023-04-18T19:45:55.111Z,9.70
2023-04-18T19:48:22.429Z,10.03
2023-04-18T19:50:49.641Z,9.23
2023-04-18T19:53:18.887Z,9.03
2023-04-18T19:55:46.049Z,8.30
2023-04-18T19:58:33.337Z,7.87
2023-04-18T20:01:00.611Z,7.57
2023-04-18T20:03:27.820Z,6.53
2023-04-18T20:05:54.740Z,6.53
2023-04-18T20:08:21.701Z,4.93
2023-04-18T20:10:48.461Z,5.63
2023-04-18T20:13:16.033Z,5.50
2023-04-18T20:15:42.745Z,5.43
2023-04-18T20:18:09.790Z,4.83
2023-04-18T20:20:36.868Z,4.77
2023-04-18T20:23:03.965Z,5.20
2023-04-18T20:25:32.961Z,4.87
2023-04-18T20:28:00.213Z,4.80
2023-04-18T20:30:26.986Z,4.83
2023-04-18T20:32:54.093Z,4.83
2023-04-18T20:35:22.269Z,4.83
2023-04-18T20:37:49.851Z,5.20
2023-04-18T20:40:16.614Z,4.67
2023-04-18T20:42:43.567Z,4.53
2023-04-18T20:45:11.151Z,4.40
2023-04-18T20:47:41.418Z,5.00
2023-04-18T20:50:09.172Z,4.53
2023-04-18T20:52:36.474Z,4.77
2023-04-18T20:55:03.452Z,4.90
2023-04-18T20:57:30.716Z,5.07
2023-04-18T20:59:58.652Z,4.97
2023-04-18T21:02:26.421Z,5.00
2023-04-18T21:04:53.586Z,4.00
2023-04-18T21:07:20.613Z,5.80
2023-04-18T21:09:47.491Z,4.57
2023-04-18T21:12:14.473Z,4.70
2023-04-18T21:14:41.215Z,4.73
2023-04-18T21:17:09.815Z,5.07
2023-04-18T21:19:36.881Z,5.63
2023-04-18T21:22:04.313Z,5.80
2023-04-18T21:24:31.107Z,4.60
2023-04-18T21:26:58.622Z,4.73
2023-04-18T21:29:25.396Z,3.83
2023-04-18T21:31:52.581Z,3.80
2023-04-18T21:34:20.089Z,4.50
2023-04-18T21:36:47.086Z,3.97
2023-04-18T21:39:13.913Z,3.53
2023-04-18T21:41:41.372Z,3.70
2023-04-18T21:44:08.130Z,3.20
2023-04-18T21:46:35.156Z,4.00
2023-04-18T21:49:01.954Z,3.20
2023-04-18T21:51:29.138Z,3.43
2023-04-18T21:53:55.924Z,3.27
2023-04-18T21:56:22.927Z,4.03
2023-04-18T21:58:49.706Z,3.80
2023-04-18T22:01:16.803Z,3.70
2023-04-18T22:03:43.840Z,3.80
2023-04-18T22:06:11.814Z,3.77
2023-04-18T22:08:38.891Z,4.13
2023-04-18T22:11:05.934Z,3.37
2023-04-18T22:13:35.662Z,3.77
2023-04-18T22:16:03.535Z,3.57
2023-04-18T22:18:33.795Z,4.03
2023-04-18T22:21:03.297Z,3.07
2023-04-18T22:23:30.560Z,3.43
2023-04-18T22:25:57.802Z,3.27
2023-04-18T22:28:24.652Z,3.33
2023-04-18T22:30:51.745Z,3.40
2023-04-18T22:33:18.510Z,2.97
2023-04-18T22:35:47.732Z,3.27
2023-04-18T22:38:14.616Z,3.57
2023-04-18T22:40:41.829Z,3.40
2023-04-18T22:43:08.590Z,3.00
2023-04-18T22:45:35.835Z,3.47
2023-04-18T22:48:02.631Z,3.00
2023-04-18T22:50:30.228Z,3.80
2023-04-18T22:52:57.443Z,3.67
2023-04-18T22:55:24.594Z,3.23
2023-04-18T22:57:51.307Z,3.30
2023-04-18T23:00:18.780Z,3.43
2023-04-18T23:02:45.784Z,3.17
2023-04-18T23:05:15.477Z,3.40
2023-04-18T23:07:42.220Z,2.83
2023-04-18T23:10:09.785Z,3.23
2023-04-18T23:12:36.486Z,3.30
2023-04-18T23:15:03.778Z,2.80
2023-04-18T23:17:30.787Z,3.63
2023-04-18T23:19:57.884Z,3.40
2023-04-18T23:22:24.643Z,3.30
2023-04-18T23:24:51.673Z,3.00
2023-04-18T23:27:19.134Z,3.33
2023-04-18T23:29:49.548Z,3.67
2023-04-18T23:32:16.409Z,3.13
2023-04-18T23:34:45.417Z,3.30
2023-04-18T23:37:12.179Z,3.13
2023-04-18T23:39:39.246Z,3.40
2023-04-18T23:42:06.021Z,3.80
2023-04-18T23:44:33.024Z,3.50
2023-04-18T23:46:59.757Z,3.77
2023-04-18T23:49:28.167Z,3.93
2023-04-18T23:51:54.929Z,3.87
2023-04-18T23:54:21.900Z,4.70
2023-04-18T23:56:48.760Z,3.60
2023-04-18T23:59:15.867Z,3.37
